Tiempo atmosférico en la estación meteorológica de Villablino, León (958 m.)



Fecha
DESCASC
Temp. máxima en grados centígrados (hora)
DESCASC
Temp. mínima en grados centígrados (hora)
DESCASC
Temp. media en grados centígrados
DESCASC
Racha de viento máxima en m/sg (hora)
DESCASC
Velocidad máxima media en intervalos de 10 minutos(hora)
DESCASC
Precipitaciones diarias en mm
DESCASC
Precipitaciones de 00:00 a 06:00 en mm
DESCASC
Precipitaciones de 06:00 a 12:00 en mm
DESCASC
Precipitaciones de 12:00 a 18:00 en mm
DESCASC
Precipitaciones de 18:00 a 24:00 en mm
DESCASC
20-02-2020 16.7 (14:20) -4.6 (08:20) 6.1 8.33 (14:40) 4.72 (14:40) 0 0 0 0 0
19-02-2020 15.2 (16:40) -4.8 (08:10) 5.2 8.61 (15:30) 5.83 (15:40) 0 0 0 0 0
18-02-2020 11 (16:00) -1.8 (23:59) 4.6 7.78 (16:50) 4.72 (13:50) 0 0 0 0 0
17-02-2020 10.7 (00:00) 0.1 (23:59) 5.4 14.17 (03:20) 7.78 (00:30) 9.6 8.4 0.8 0.2 0.2
16-02-2020 12.8 (16:20) 6.7 (00:00) 9.8 22.22 (15:50) 11.67 (07:00) 0 0 0 0 0
15-02-2020 14.6 (16:10) 0.4 (00:00) 7.5 13.33 (14:00) 7.5 (13:10) 0 0 0 0 0
14-02-2020 14.7 (16:20) 0.7 (00:00) 7.7 11.39 (14:10) 7.78 (14:10) 0 0 0 0 0
13-02-2020 12.8 (15:10) 5.9 (00:00) 9.4 13.61 (05:10) 7.5 (05:50) 0.8 0.2 0.4 0.2 0
12-02-2020 13.8 (15:20) 0.4 (00:00) 7.1 10.83 (21:40) 5.83 (14:10) 0.2 0 0 0 0.2
11-02-2020 13.9 (13:50) 2 (00:00) 7.9 7.78 (11:40) 3.89 (11:40) 0.4 0 0 0 0.4
10-02-2020 -- (--) -- (--) -- -- (--) -- (--) -- 0 0 -- 0
09-02-2020 10.1 (23:59) 1.8 (00:00) 6 13.61 (13:30) 7.5 (03:40) 0.8 0 0 0.4 0.4
08-02-2020 11.4 (16:00) 1.9 (00:00) 6.6 10 (00:50) 5.56 (02:40) 10 1.4 8.6 0 0
07-02-2020 14 (15:20) -2.4 (-00:0) 5.8 12.5 (15:40) 8.06 (16:00) 0 0 0 0 0
06-02-2020 15.1 (14:50) -3.7 (-00:0) 5.7 11.94 (15:30) 8.89 (15:20) 0 0 0 0 0
05-02-2020 18 (15:30) -2.8 (-00:0) 7.6 8.33 (16:30) 5 (16:50) 0 0 0 0 0
04-02-2020 16.7 (14:10) -0.6 (-00:0) 8.1 10 (17:30) 5.28 (17:30) 0 0 0 0 0
03-02-2020 18.2 (15:00) -0.1 (08:30) 9.1 15 (15:30) 8.61 (15:20) 0 0 0 0 0
02-02-2020 15.1 (14:50) 5.1 (00:00) 10.1 14.72 (15:40) 8.89 (12:50) 0 0 0 0 0
01-02-2020 13.4 (15:10) 10.1 (00:00) 11.8 14.72 (18:20) 8.06 (20:30) 4.8 3 0 1.2 0.6
31-01-2020 13.5 (14:10) 5.2 (00:00) 9.3 12.78 (20:10) 7.22 (20:40) 6.4 0 0 0 6.4
30-01-2020 9.8 (00:50) 7.7 (00:00) 8.8 15.56 (05:30) 8.61 (05:40) 0.6 0 0 0.4 0.2
29-01-2020 9.7 (19:30) 7.4 (00:00) 8.5 13.89 (12:00) 7.78 (13:40) 17.4 2.4 4.4 9.4 1.2
28-01-2020 9.8 (14:50) 1.4 (00:00) 5.6 10.83 (11:40) 6.39 (14:00) 2.2 0 0 0.2 2
27-01-2020 7.8 (14:50) 4.7 (00:00) 6.3 17.22 (17:30) 8.61 (17:00) 22.4 1.6 11.2 3.4 6.2
26-01-2020 6.8 (16:30) -3.2 (-00:0) 1.8 12.5 (23:40) 7.22 (19:00) 0 0 0 0 0
25-01-2020 10.4 (14:00) -0.4 (00:00) 5 7.78 (15:40) 5 (15:40) 0.2 0.2 0 0 0
24-01-2020 9.5 (14:50) -1.6 (-00:0) 3.9 5.28 (17:40) 4.17 (17:50) 0.4 0 0 0 0.4
23-01-2020 11.9 (15:30) -1.2 (-00:0) 5.3 6.11 (13:10) 3.61 (13:10) 0 0 0 0 0
22-01-2020 9.6 (13:30) -0.3 (00:00) 4.7 6.39 (04:00) 3.33 (06:00) 0 0 0 0 0

Gráficas

Temp. máximas Temp. mínimas Temp. medias Precipitaciones Rachas de viento máximas Velocidades máximas media en intervalos de 10 minutos

Datos horarios

Fecha y hora oficial Temperatura (ºC) Velocidad del viento (km/h) Dirección del viento Racha (km/h) Dirección de racha Precipitación (mm) Presión (hPa) Tendencia (hPa) Humedad (%)
2020-02-20 23:00:00 2.5 5 Norte 15 Norte 0 -- -- 88
2020-02-20 22:00:00 3.7 4 Nordeste 12 Nordeste 0 -- -- 82
2020-02-20 21:00:00 5.7 4 Noroeste 20 Noroeste 0 -- -- 75
2020-02-20 20:00:00 7.4 7 Norte 21 Noroeste 0 -- -- 65
2020-02-20 19:00:00 8 3 Sudeste 12 Norte 0 -- -- 55
2020-02-20 18:00:00 10.3 6 Noroeste 18 Noroeste 0 -- -- 41
2020-02-20 17:00:00 15.1 7 Noroeste 18 Noroeste 0 -- -- 31
2020-02-20 16:00:00 15.9 11 Noroeste 28 Norte 0 -- -- 32
2020-02-20 15:00:00 15.4 15 Noroeste 30 Norte 0 -- -- 32
2020-02-20 14:00:00 15.6 10 Sudoeste 20 Sudoeste 0 -- -- 33
2020-02-20 13:00:00 11.2 2 Nordeste 5 Sur 0 -- -- 47
2020-02-20 12:00:00 6.5 3 Sudeste 6 Sur 0 -- -- 58
2020-02-20 11:00:00 2 3 Este 8 Este 0 -- -- 77
2020-02-20 10:00:00 -3.5 0 Calma 4 Este 0 -- -- 97
2020-02-20 09:00:00 -4.2 3 Nordeste 5 Nordeste 0 -- -- 97
2020-02-20 08:00:00 -4.1 4 Nordeste 7 Norte 0 -- -- 97
2020-02-20 07:00:00 -4.2 2 Norte 5 Norte 0 -- -- 97
2020-02-20 06:00:00 -- -- -- -- -- -- -- -- --
2020-02-20 05:00:00 -3.7 3 Norte 6 Norte 0 -- -- 96
2020-02-20 04:00:00 -3.2 2 Norte 6 Norte 0 -- -- 96
2020-02-20 03:00:00 -2.9 2 Norte 4 Norte 0 -- -- 95
2020-02-20 02:00:00 -2.5 2 Nordeste 6 Nordeste 0 -- -- 94
2020-02-20 01:00:00 -2 2 Nordeste 5 Norte 0 -- -- 93
2020-02-20 00:00:00 -1.5 3 Nordeste 5 Nordeste 0 -- -- 90
2020-02-19 23:00:00 -0.6 0 Calma 5 Norte 0 -- -- 88
2020-02-19 22:00:00 0.6 3 Nordeste 6 Nordeste 0 -- -- 81
2020-02-19 21:00:00 1.6 0 Calma 9 Nordeste 0 -- -- 77
2020-02-19 20:00:00 4.8 4 Norte 14 Sur 0 -- -- 55
2020-02-19 19:00:00 8.7 12 Sudoeste 17 Sudoeste 0 -- -- 45
2020-02-19 18:00:00 10.4 6 Sudoeste 31 Sur 0 -- -- 29
2020-02-19 17:00:00 14.7 19 Sur 29 Sur 0 -- -- 20
2020-02-19 16:00:00 14.5 19 Sur 31 Sudoeste 0 -- -- 22
2020-02-19 15:00:00 14 19 Sudoeste 30 Sudoeste 0 -- -- 26
2020-02-19 14:00:00 11.6 4 Norte 12 Norte 0 -- -- 42
2020-02-19 13:00:00 8.7 2 Sur 6 Sur 0 -- -- 47
2020-02-19 12:00:00 4.4 3 Sudeste 7 Sur -- -- -- 62
2020-02-19 11:00:00 0.8 4 Sur 7 Sur 0 -- -- 77
2020-02-19 10:00:00 -3.7 2 Sur 12 Norte 0 -- -- 94
2020-02-19 09:00:00 -4.4 8 Norte 12 Norte 0 -- -- 97
2020-02-19 08:00:00 -4.7 4 Norte 10 Norte 0 -- -- 96
2020-02-19 07:00:00 -4.5 2 Nordeste 8 Norte 0 -- -- 97
2020-02-19 06:00:00 -4.2 4 Norte 8 Norte 0 -- -- 97
2020-02-19 05:00:00 -3.8 4 Nordeste 8 Norte 0 -- -- 97
2020-02-19 04:00:00 -3.2 4 Nordeste 7 Norte 0 -- -- 97
2020-02-19 03:00:00 -3 4 Norte 7 Norte 0 -- -- 96
2020-02-19 02:00:00 -2.9 4 Norte 8 Norte 0 -- -- 96
2020-02-19 01:00:00 -2.3 3 Norte 8 Norte 0 -- -- 95
2020-02-19 00:00:00 -1.8 3 Nordeste 8 Norte 0 -- -- 95
2020-02-18 23:00:00 -1.3 3 Norte 6 Nordeste -- -- -- 93
2020-02-18 22:00:00 -0.2 3 Norte 5 Norte 0 -- -- 89
2020-02-18 21:00:00 0.8 3 Nordeste 9 Nordeste 0 -- -- 85
2020-02-18 20:00:00 2.5 3 Nordeste 17 Noroeste 0 -- -- 78
2020-02-18 19:00:00 4.8 5 Noroeste 25 Noroeste 0 -- -- 67
2020-02-18 18:00:00 6.1 13 Noroeste 26 Norte 0 -- -- 59
2020-02-18 17:00:00 9 15 Noroeste 28 Noroeste 0 -- -- 50
2020-02-18 16:00:00 11 7 Noroeste 17 Noroeste 0 -- -- 42
2020-02-18 15:00:00 9.3 9 Noroeste 25 Norte 0 -- -- 48
2020-02-18 14:00:00 7.9 15 Noroeste 26 Norte 0 -- -- 53
2020-02-18 13:00:00 7.3 3 Sudeste 8 Sur 0 -- -- 57
2020-02-18 12:00:00 3.7 4 Sudeste 8 Nordeste 0 -- -- 73
2020-02-18 11:00:00 1.1 4 Nordeste 11 Este 0 -- -- 81
2020-02-18 10:00:00 -0.8 5 Este 10 Este 0 -- -- 88
2020-02-18 09:00:00 -1.4 7 Este 13 Este 0 -- -- 91
2020-02-18 08:00:00 -1 6 Este 12 Nordeste 0 -- -- 91
2020-02-18 07:00:00 -0.7 4 Norte 10 Norte 0 -- -- 92
2020-02-18 06:00:00 -0.9 6 Norte 10 Norte 0 -- -- 95
2020-02-18 05:00:00 -1 2 Nordeste 10 Norte 0 -- -- 97
2020-02-18 04:00:00 -1.5 5 Norte 7 Noroeste 0 -- -- 97
2020-02-18 03:00:00 -1.3 0 Calma 5 Norte 0 -- -- 97
2020-02-18 02:00:00 -1.1 3 Norte 6 Norte 0 -- -- 95
2020-02-18 01:00:00 -0.4 0 Calma 10 Norte 0 -- -- 95
2020-02-18 00:00:00 0.1 3 Norte 8 Norte 0 -- -- 93
2020-02-17 23:00:00 1.2 5 Norte 8 Norte 0 -- -- 92
2020-02-17 22:00:00 1.9 3 Norte 5 Este 0 -- -- 94
2020-02-17 21:00:00 1.6 3 Norte 5 Noroeste -- -- -- 94
2020-02-17 20:00:00 2.3 0 Calma 8 Norte 0 -- -- 93
2020-02-17 19:00:00 3.6 3 Noroeste 11 Sudoeste 0.2 -- -- 86
2020-02-17 18:00:00 5.6 10 Noroeste 20 Noroeste 0 -- -- 76
2020-02-17 17:00:00 5.4 9 Noroeste 27 Norte 0 -- -- 84
2020-02-17 16:00:00 8.1 8 Sudoeste 30 Noroeste 0.2 -- -- 62
2020-02-17 15:00:00 7.5 12 Norte 29 Noroeste 0 -- -- 74
2020-02-17 14:00:00 8.2 9 Sudoeste 25 Sur 0 -- -- 58
2020-02-17 13:00:00 8.5 8 Sudeste 40 Sur 0 -- -- 60
2020-02-17 12:00:00 8.4 18 Sur 36 Sudoeste 0 -- -- 62
2020-02-17 11:00:00 6 12 Norte 30 Norte 0.2 -- -- 79
2020-02-17 10:00:00 5.8 13 Norte 21 Noroeste 0 -- -- 83
2020-02-17 09:00:00 4.9 6 Noroeste 23 Norte 0 -- -- 89
2020-02-17 08:00:00 5.4 12 Norte 35 Noroeste 0.2 -- -- 88
2020-02-17 07:00:00 6.4 2 Sudeste 24 Noroeste 0.4 -- -- 93
2020-02-17 06:00:00 6.5 16 Noroeste 39 Noroeste 2.2 -- -- 91
2020-02-17 05:00:00 9.5 11 Norte 50 Sudoeste 2.8 -- -- 94
2020-02-17 04:00:00 10.2 20 Sur 51 Sudoeste 1.6 -- -- 91
2020-02-17 03:00:00 10.2 17 Sudoeste 40 Sudoeste 1.2 -- -- 91
2020-02-17 02:00:00 10.3 18 Sudoeste 48 Sudoeste 0.4 -- -- 90
2020-02-17 01:00:00 10.4 26 Sur 50 Sur 0.2 -- -- 88
2020-02-17 00:00:00 10.7 25 Sudoeste 62 Sudoeste 0 -- -- 86
2020-02-16 23:00:00 10.8 19 Sudoeste 56 Sur 0 -- -- 84
2020-02-16 22:00:00 10.3 26 Sur 55 Sudoeste 0 -- -- 87
2020-02-16 21:00:00 11.7 20 Sur 45 Sur 0 -- -- 75
2020-02-16 20:00:00 11.8 14 Sur 59 Sur 0 -- -- 73
2020-02-16 19:00:00 12 24 Sur 56 Sur 0 -- -- 71
2020-02-16 18:00:00 12.5 22 Sudoeste 67 Sur 0 -- -- 66
2020-02-16 17:00:00 12.6 28 Sudoeste 63 Sur 0 -- -- 64
2020-02-16 16:00:00 12.5 37 Sudoeste 80 Sur 0 -- -- 65
2020-02-16 15:00:00 12.4 40 Sudoeste 78 Sur 0 -- -- 66
2020-02-16 14:00:00 12.5 39 Sur 72 Sur 0 -- -- 65
2020-02-16 13:00:00 11.8 33 Sur 67 Sur 0 -- -- 69
2020-02-16 12:00:00 12 30 Sudoeste 66 Sudoeste 0 -- -- 66
2020-02-16 11:00:00 11.6 24 Sur 57 Sur 0 -- -- 66
2020-02-16 10:00:00 10.2 33 Sur 64 Sur 0 -- -- 70
2020-02-16 09:00:00 9.4 37 Sudoeste 68 Sudoeste 0 -- -- 73
2020-02-16 08:00:00 9.6 33 Sur 74 Sur 0 -- -- 71
2020-02-16 07:00:00 9.3 42 Sur 69 Sur 0 -- -- 71
2020-02-16 06:00:00 9.6 36 Sur 65 Sudoeste 0 -- -- 67
2020-02-16 05:00:00 9.6 33 Sur 63 Sur 0 -- -- 66
2020-02-16 04:00:00 9.7 33 Sudoeste 58 Sur 0 -- -- 66
2020-02-16 03:00:00 10.1 30 Sudoeste 54 Sudoeste 0 -- -- 62
2020-02-16 02:00:00 10 24 Sudoeste 54 Sur 0 -- -- 63
2020-02-16 01:00:00 9 26 Sur 44 Sur 0 -- -- 71
2020-02-16 00:00:00 6.7 5 Noroeste 14 Nordeste 0 -- -- 81
2020-02-15 23:00:00 8.2 8 Sudeste 24 Sur 0 -- -- 75
2020-02-15 22:00:00 7 4 Nordeste 19 Sur 0 -- -- 81
2020-02-15 21:00:00 9.3 10 Sudoeste 40 Sur 0 -- -- 73
2020-02-15 20:00:00 10 22 Sudoeste 39 Sudoeste 0 -- -- 70
2020-02-15 19:00:00 10.4 17 Sur 37 Sur 0 -- -- 66
2020-02-15 18:00:00 11.6 16 Sur 43 Sur 0 -- -- 60
2020-02-15 17:00:00 12.8 20 Sur 37 Sur 0 -- -- 55
2020-02-15 16:00:00 13.9 21 Sur 37 Sur 0 -- -- 54
2020-02-15 15:00:00 13.5 14 Sur 32 Sur 0 -- -- 52
2020-02-15 14:00:00 12.7 24 Sur 48 Sudeste 0 -- -- 55
2020-02-15 13:00:00 10.6 24 Sur 37 Sur 0 -- -- 63
2020-02-15 12:00:00 9.5 4 Norte 10 Norte 0 -- -- 74
2020-02-15 11:00:00 5.1 5 Sur 9 Sur 0 -- -- 95
2020-02-15 10:00:00 1.1 0 Calma 5 Nordeste 0 -- -- 100
2020-02-15 09:00:00 0.6 2 Noroeste 4 Oeste 0 -- -- 100
2020-02-15 08:00:00 0.9 0 Calma 8 Norte 0 -- -- 100
2020-02-15 07:00:00 1.4 0 Calma 7 Norte 0 -- -- 99
2020-02-15 06:00:00 1.5 3 Norte 13 Norte 0 -- -- 99
2020-02-15 05:00:00 1.6 5 Norte 12 Norte 0 -- -- 99
2020-02-15 04:00:00 1.1 2 Norte 6 Norte 0 -- -- 99
2020-02-15 03:00:00 1.6 0 Calma 8 Norte 0 -- -- 98
2020-02-15 02:00:00 1.9 0 Calma 7 Nordeste 0 -- -- 98
2020-02-15 01:00:00 2.8 3 Nordeste 7 Este 0 -- -- 96
2020-02-15 00:00:00 3.2 2 Noroeste 7 Este 0 -- -- 96
2020-02-14 23:00:00 4.2 4 Norte 7 Nordeste 0 -- -- 93
2020-02-14 22:00:00 4.2 0 Calma 5 Norte 0 -- -- 92
2020-02-14 21:00:00 5.1 3 Norte 5 Noroeste 0 -- -- 91
2020-02-14 20:00:00 6.1 0 Calma 5 Norte 0 -- -- 86
2020-02-14 19:00:00 8.2 2 Oeste 6 Sur 0 -- -- 79
2020-02-14 18:00:00 11 5 Sudoeste 25 Sur 0 -- -- 67
2020-02-14 17:00:00 14.3 19 Sur 31 Sur 0 -- -- 57
2020-02-14 16:00:00 14.3 19 Sur 37 Sudoeste 0 -- -- 58
2020-02-14 15:00:00 13.5 25 Sudoeste 41 Sudoeste 0 -- -- 61
2020-02-14 14:00:00 12.8 24 Sudoeste 39 Sur 0 -- -- 63
2020-02-14 13:00:00 12.4 8 Sur 18 Sur 0 -- -- 61
2020-02-14 12:00:00 9.4 3 Sudeste 5 Sudeste 0 -- -- 69
2020-02-14 11:00:00 5.5 4 Sudeste 6 Sudeste 0 -- -- 82
2020-02-14 10:00:00 2.2 2 Norte 8 Norte 0 -- -- 95
2020-02-14 09:00:00 1.2 5 Norte 8 Norte 0 -- -- 96
2020-02-14 08:00:00 0.7 4 Norte 6 Norte 0 -- -- 95
2020-02-14 07:00:00 1.4 3 Norte 7 Norte 0 -- -- 96
2020-02-14 06:00:00 1.6 2 Nordeste 8 Norte 0 -- -- 95
2020-02-14 05:00:00 1.4 4 Norte 7 Norte 0 -- -- 97
2020-02-14 04:00:00 1 3 Norte 6 Norte 0 -- -- 96
2020-02-14 03:00:00 1.8 2 Sudeste 6 Norte 0 -- -- 96
2020-02-14 02:00:00 2.6 3 Norte 5 Nordeste 0 -- -- 94
2020-02-14 01:00:00 3.9 0 Calma 10 Norte 0 -- -- 89
2020-02-14 00:00:00 5.9 3 Nordeste 15 Oeste 0 -- -- 89
2020-02-13 23:00:00 6.7 3 Sudoeste 8 Nordeste 0 -- -- 87
2020-02-13 22:00:00 8.6 7 Sudoeste 24 Sur 0 -- -- 81
2020-02-13 21:00:00 9 13 Sur 28 Sur 0 -- -- 80
2020-02-13 20:00:00 9.4 12 Sudoeste 33 Sur 0 -- -- 77
2020-02-13 19:00:00 10 15 Sur 33 Sur 0 -- -- 73
2020-02-13 18:00:00 11 10 Sur 27 Sur 0 -- -- 69
2020-02-13 17:00:00 11.6 5 Sudoeste 35 Sur 0 -- -- 63
2020-02-13 16:00:00 11.5 24 Sur 38 Sur 0 -- -- 68
2020-02-13 15:00:00 11.7 17 Sur 41 Sur 0 -- -- 72
2020-02-13 14:00:00 11.1 17 Sur 42 Sudoeste 0.2 -- -- 73
2020-02-13 13:00:00 9.6 21 Sur 41 Sur 0 -- -- 80
2020-02-13 12:00:00 10.1 11 Sudoeste 37 Sur 0 -- -- 77
2020-02-13 11:00:00 9.5 14 Sur 42 Sur 0 -- -- 79
2020-02-13 10:00:00 9.3 20 Sur 39 Sur 0 -- -- 81
2020-02-13 09:00:00 8.4 9 Sudoeste 37 Sudoeste 0.4 -- -- 87
2020-02-13 08:00:00 9.2 21 Sur 41 Sur 0 -- -- 82
2020-02-13 07:00:00 9.5 20 Sudoeste 41 Sur 0 -- -- 79
2020-02-13 06:00:00 9.5 22 Sur 49 Sur 0 -- -- 79
2020-02-13 05:00:00 9.8 22 Sur 48 Sur 0 -- -- 78
2020-02-13 04:00:00 9.8 19 Sur 41 Sur 0 -- -- 80
2020-02-13 03:00:00 9.8 16 Sur 41 Sudoeste 0 -- -- 81
2020-02-13 02:00:00 9.7 8 Sudoeste 36 Sur 0 -- -- 82
2020-02-13 01:00:00 9.8 14 Sudoeste 34 Sur 0.2 -- -- 83
2020-02-13 00:00:00 9.8 14 Sur 37 Sur 0.2 -- -- 85
2020-02-12 23:00:00 10.7 11 Sur 34 Sur 0 -- -- 77
2020-02-12 22:00:00 10.9 18 Sudoeste 39 Sur 0 -- -- 76
2020-02-12 21:00:00 11 11 Sudoeste 22 Sur 0 -- -- 74
2020-02-12 20:00:00 9.9 5 Sudoeste 12 Oeste 0 -- -- 80
2020-02-12 19:00:00 10.7 5 Sudoeste 29 Sur 0 -- -- 74
2020-02-12 18:00:00 12 18 Sur 31 Sur 0 -- -- 69
2020-02-12 17:00:00 12.7 12 Sur 36 Sur 0 -- -- 64
2020-02-12 16:00:00 13.6 17 Sur 37 Sur 0 -- -- 60
2020-02-12 15:00:00 12.6 18 Sur 36 Sudoeste 0 -- -- 60
2020-02-12 14:00:00 13.3 17 Sudoeste 27 Sudoeste 0 -- -- 52
2020-02-12 13:00:00 10.7 3 Sudeste 6 Sur 0 -- -- 66
2020-02-12 12:00:00 6.5 3 Sur 6 Sur 0 -- -- 92
2020-02-12 11:00:00 3.4 3 Sudeste 4 Sudeste 0 -- -- 98
2020-02-12 10:00:00 1.2 2 Nordeste 5 Norte 0 -- -- 99
2020-02-12 09:00:00 1.2 2 Nordeste 5 Nordeste 0 -- -- 100
2020-02-12 08:00:00 0.8 0 Calma 6 Norte 0 -- -- 100
2020-02-12 07:00:00 0.7 2 Nordeste 6 Norte 0 -- -- 100
2020-02-12 06:00:00 0.5 0 Calma 5 Norte 0 -- -- 99
2020-02-12 05:00:00 1.4 2 Este 6 Norte 0 -- -- 99
2020-02-12 04:00:00 1.9 3 Nordeste 5 Noroeste 0 -- -- 99
2020-02-12 03:00:00 2.8 0 Calma 6 Norte 0 -- -- 99
2020-02-12 02:00:00 4 0 Calma 5 Norte 0 -- -- 99
2020-02-12 01:00:00 4.9 0 Calma 4 Norte 0 -- -- 98
2020-02-12 00:00:00 5.3 2 Norte 6 Norte 0 -- -- 97
2020-02-11 23:00:00 5.7 3 Norte 7 Este 0 -- -- 97
2020-02-11 22:00:00 6.6 4 Nordeste 6 Oeste 0 -- -- 95
2020-02-11 21:00:00 7.3 0 Calma 12 Noroeste 0.4 -- -- 91
2020-02-11 20:00:00 8.2 8 Norte 20 Norte 0 -- -- 81
2020-02-11 19:00:00 9.8 11 Norte 17 Noroeste 0 -- -- 74
2020-02-11 18:00:00 10.6 10 Norte 20 Noroeste 0 -- -- 70
2020-02-11 17:00:00 11 9 Norte 26 Noroeste 0 -- -- 71
2020-02-11 16:00:00 11.5 4 Noroeste 27 Norte 0 -- -- 69
2020-02-11 15:00:00 11.5 10 Noroeste 21 Noroeste 0 -- -- 71
2020-02-11 14:00:00 13.4 5 Noroeste 17 Norte 0 -- -- 61
2020-02-11 13:00:00 11.3 6 Norte 14 Norte 0 -- -- 67
2020-02-11 12:00:00 10.9 5 Sudeste 28 Sudoeste 0 -- -- 68
2020-02-11 11:00:00 9.5 5 Norte 17 Norte 0 -- -- 72
2020-02-11 10:00:00 8.7 7 Norte 14 Norte 0 -- -- 77
2020-02-11 09:00:00 7.9 6 Sudoeste 14 Sudoeste 0 -- -- 83
2020-02-11 08:00:00 4.9 4 Norte 8 Norte 0 -- -- 91
2020-02-11 07:00:00 4.2 3 Noroeste 5 Norte 0 -- -- 91
2020-02-11 06:00:00 3.8 2 Nordeste 8 Sudoeste 0 -- -- 93
2020-02-11 05:00:00 3.1 4 Norte 7 Norte 0 -- -- 95
2020-02-11 04:00:00 2.4 0 Calma 5 Nordeste 0 -- -- 97
2020-02-11 03:00:00 2 3 Norte 8 Norte 0 -- -- 97
2020-02-11 02:00:00 3 0 Calma 6 Norte 0 -- -- 95
2020-02-11 01:00:00 4.1 2 Oeste 8 Norte 0 -- -- 90
2020-02-11 00:00:00 4.4 2 Este 13 Nordeste 0 -- -- 90
2020-02-10 23:00:00 5.6 5 Norte 16 Norte 0 -- -- 83
2020-02-10 22:00:00 8.1 6 Noroeste 24 Sudoeste 0 -- -- 74
2020-02-10 21:00:00 9.6 16 Sur 28 Sur 0 -- -- 75
2020-02-10 20:00:00 9.4 6 Sudoeste 19 Sur 0 -- -- 72
2020-02-10 19:00:00 11.9 6 Nordeste 19 Sur 0 -- -- 62
2020-02-10 18:00:00 -- -- -- -- -- -- -- -- --
2020-02-10 17:00:00 15.8 26 Sur 42 Sudoeste 0 -- -- 53
2020-02-10 16:00:00 16.1 26 Sudoeste 37 Sudoeste 0 -- -- 55
2020-02-10 15:00:00 16.2 19 Sudoeste 37 Sudoeste 0 -- -- 57
2020-02-10 14:00:00 14.5 28 Sudoeste 44 Sudoeste 0 -- -- 63
2020-02-10 13:00:00 13.4 29 Sudoeste 48 Sur 0 -- -- 66
2020-02-10 12:00:00 12.4 25 Sudoeste 45 Sudoeste 0 -- -- 72
2020-02-10 11:00:00 11.1 22 Sur 41 Sur 0 -- -- 77
2020-02-10 10:00:00 10.8 13 Sudoeste 24 Oeste 0 -- -- 83
2020-02-10 09:00:00 10.1 12 Oeste 27 Sudoeste 0 -- -- 86
2020-02-10 08:00:00 10.3 22 Sudoeste 42 Sur 0 -- -- 87
2020-02-10 07:00:00 10.4 16 Sudoeste 35 Oeste 0 -- -- 85
2020-02-10 06:00:00 10.8 18 Sudoeste 33 Sur 0 -- -- 85
2020-02-10 05:00:00 10.9 19 Sudoeste 41 Sur 0 -- -- 86
2020-02-10 04:00:00 10.9 19 Sudoeste 44 Sur 0 -- -- 87
2020-02-10 03:00:00 10.6 29 Sudoeste 50 Sur 0 -- -- 89
2020-02-10 02:00:00 10.3 13 Sudoeste 29 Sudoeste 0 -- -- 90
2020-02-10 01:00:00 10.3 6 Este 31 Sudoeste 0 -- -- 90
2020-02-10 00:00:00 10.1 14 Sudoeste 35 Sur 0 -- -- 91
2020-02-09 23:00:00 9.7 14 Oeste 38 Sur 0.2 -- -- 92
2020-02-09 22:00:00 9.3 15 Sur 40 Sur 0 -- -- 93
2020-02-09 21:00:00 8.8 5 Oeste 21 Sudoeste 0 -- -- 94
2020-02-09 20:00:00 9 10 Sur 45 Sur 0 -- -- 92
2020-02-09 19:00:00 8.7 19 Sur 41 Sur 0.2 -- -- 93
2020-02-09 18:00:00 8.5 14 Sur 24 Sur 0.4 -- -- 94
2020-02-09 17:00:00 8.5 10 Sudoeste 34 Sur 0 -- -- 92
2020-02-09 16:00:00 8.9 21 Sudoeste 39 Sur 0 -- -- 89
2020-02-09 15:00:00 9.2 8 Sur 28 Sur 0 -- -- 87
2020-02-09 14:00:00 8.1 15 Sur 49 Sur 0 -- -- 91
2020-02-09 13:00:00 7.9 15 Sur 29 Oeste 0 -- -- 89
2020-02-09 12:00:00 6.5 10 Sudoeste 22 Sudoeste 0 -- -- 93
2020-02-09 11:00:00 6 13 Sudoeste 24 Sudoeste 0 -- -- 91
2020-02-09 10:00:00 6.5 10 Sudoeste 30 Sudoeste 0 -- -- 84
2020-02-09 09:00:00 7.1 11 Sudoeste 30 Sur 0 -- -- 75
2020-02-09 08:00:00 7.2 4 Sudoeste 24 Sur 0 -- -- 73
2020-02-09 07:00:00 7.2 12 Sur 36 Sur 0 -- -- 74
2020-02-09 06:00:00 7.3 17 Sur 39 Sur 0 -- -- 78
2020-02-09 05:00:00 7.3 20 Sur 45 Sur 0 -- -- 78
2020-02-09 04:00:00 7.4 24 Sur 48 Sur 0 -- -- 79
2020-02-09 03:00:00 7.2 24 Sur 47 Sur 0 -- -- 80
2020-02-09 02:00:00 2.9 6 Norte 10 Norte 0 -- -- 89
2020-02-09 01:00:00 2 3 Nordeste 8 Norte 0 -- -- 93
2020-02-09 00:00:00 2.3 4 Norte 9 Norte 0 -- -- 92
2020-02-08 23:00:00 2.6 0 Calma 9 Norte -- -- -- 90
2020-02-08 22:00:00 3.5 4 Norte 8 Norte 0 -- -- 86
2020-02-08 21:00:00 3.8 4 Norte 10 Norte 0 -- -- 85
2020-02-08 20:00:00 5 3 Norte 12 Sur 0 -- -- 81
2020-02-08 19:00:00 6.4 9 Sur 14 Sur 0 -- -- 76
2020-02-08 18:00:00 8.3 6 Sudoeste 24 Sur 0 -- -- 70
2020-02-08 17:00:00 10.4 11 Sur 19 Sur 0 -- -- 61
2020-02-08 16:00:00 11.4 13 Sur 27 Sudoeste 0 -- -- 62
2020-02-08 15:00:00 8.9 17 Sudoeste 28 Sudoeste 0 -- -- 66
2020-02-08 14:00:00 9 17 Sudoeste 27 Sudoeste 0 -- -- 66
2020-02-08 13:00:00 9 13 Sudoeste 22 Sur 0 -- -- 72
2020-02-08 12:00:00 6.8 4 Sudeste 5 Sur 0 -- -- 81
2020-02-08 11:00:00 5.2 3 Sudeste 7 Este 0 -- -- 89
2020-02-08 10:00:00 2.9 0 Calma 6 Norte 0 -- -- 96
2020-02-08 09:00:00 3.1 4 Oeste 14 Norte 2.6 -- -- 94
2020-02-08 08:00:00 3.6 11 Norte 29 Norte 3.8 -- -- 93
2020-02-08 07:00:00 6.3 4 Nordeste 19 Sur 2.2 -- -- 98
2020-02-08 06:00:00 6 3 Norte 7 Nordeste 0.8 -- -- 97
2020-02-08 05:00:00 6.2 2 Norte 17 Sudoeste 0.4 -- -- 95
2020-02-08 04:00:00 6.9 9 Sudoeste 29 Sudoeste 0.2 -- -- 90
2020-02-08 03:00:00 7.7 16 Sudoeste 34 Sudoeste 0 -- -- 83
2020-02-08 02:00:00 9 17 Sudoeste 32 Sur 0 -- -- 72
2020-02-08 01:00:00 9.2 17 Sudoeste 36 Sur 0 -- -- 73
2020-02-08 00:00:00 9.4 21 Sur 34 Sudoeste 0 -- -- 71
2020-02-07 23:00:00 9.4 14 Sudoeste 30 Sur 0 -- -- 69
2020-02-07 22:00:00 9.8 16 Sudoeste 32 Sudoeste 0 -- -- 70
2020-02-07 21:00:00 8.5 4 Oeste 12 Oeste 0 -- -- 75
2020-02-07 20:00:00 9.7 3 Norte 23 Sur 0 -- -- 71
2020-02-07 19:00:00 10.2 16 Sur 33 Sur 0 -- -- 70
2020-02-07 18:00:00 11 7 Sudoeste 28 Sudoeste 0 -- -- 63
2020-02-07 17:00:00 13 14 Sur 43 Sur 0 -- -- 55
2020-02-07 16:00:00 13.2 29 Sur 45 Sur 0 -- -- 51
2020-02-07 15:00:00 13.2 24 Sur 34 Sur 0 -- -- 57
2020-02-07 14:00:00 12.5 17 Sudoeste 27 Sur 0 -- -- 60
2020-02-07 13:00:00 10.8 2 Sudeste 5 Oeste 0 -- -- 64
2020-02-07 12:00:00 6.4 3 Sudeste 6 Sur 0 -- -- 73
2020-02-07 11:00:00 3.8 3 Este 5 Este 0 -- -- 91
2020-02-07 10:00:00 -0.2 0 Calma 5 Nordeste 0 -- -- 99
2020-02-07 09:00:00 -1.7 3 Norte 6 Nordeste 0 -- -- 99
2020-02-07 08:00:00 -2.2 3 Norte 5 Norte 0 -- -- 99
2020-02-07 07:00:00 -2 4 Norte 5 Norte 0 -- -- 98
2020-02-07 06:00:00 -1.7 2 Norte 5 Norte 0 -- -- 98
2020-02-07 05:00:00 -1.5 2 Noroeste 5 Nordeste 0 -- -- 98
2020-02-07 04:00:00 -1 0 Calma 6 Norte 0 -- -- 97
2020-02-07 03:00:00 -0.4 4 Norte 6 Norte 0 -- -- 96
2020-02-07 02:00:00 -0.3 0 Calma 5 Norte 0 -- -- 96
2020-02-07 01:00:00 -0.2 0 Calma 8 Norte 0 -- -- 96
2020-02-07 00:00:00 0.5 3 Norte 5 Norte 0 -- -- 93
2020-02-06 23:00:00 1.2 0 Calma 7 Norte 0 -- -- 91
2020-02-06 22:00:00 2.2 3 Nordeste 4 Norte 0 -- -- 89
2020-02-06 21:00:00 2.9 2 Nordeste 4 Norte 0 -- -- 85
2020-02-06 20:00:00 4.7 3 Nordeste 12 Norte 0 -- -- 80
2020-02-06 19:00:00 6.8 3 Norte 9 Norte 0 -- -- 68
2020-02-06 18:00:00 10.5 5 Oeste 26 Sur 0 -- -- 52
2020-02-06 17:00:00 15 15 Sudoeste 35 Sur 0 -- -- 41
2020-02-06 16:00:00 14.2 29 Sur 43 Sur 0 -- -- 43
2020-02-06 15:00:00 14.8 24 Sur 42 Sur 0 -- -- 39
2020-02-06 14:00:00 11.4 2 Este 4 Sudeste 0 -- -- 44
2020-02-06 13:00:00 7.1 0 Calma 6 Sur 0 -- -- 56
2020-02-06 12:00:00 5.5 3 Sudeste 5 Sur 0 -- -- 57
2020-02-06 11:00:00 0.9 3 Sudeste 4 Sudeste 0 -- -- 81
2020-02-06 10:00:00 -3 2 Norte 4 Nordeste 0 -- -- 93
2020-02-06 09:00:00 -3.4 3 Norte 5 Norte 0 -- -- 94
2020-02-06 08:00:00 -3.6 3 Nordeste 6 Norte 0 -- -- 94
2020-02-06 07:00:00 -3.1 3 Nordeste 5 Noroeste 0 -- -- 94
2020-02-06 06:00:00 -3 3 Noroeste 6 Norte 0 -- -- 93
2020-02-06 05:00:00 -2.6 3 Norte 6 Norte 0 -- -- 93
2020-02-06 04:00:00 -2.5 0 Calma 4 Norte 0 -- -- 93
2020-02-06 03:00:00 -2.1 2 Norte 6 Norte 0 -- -- 90
2020-02-06 02:00:00 -1.6 0 Calma 5 Norte 0 -- -- 90
2020-02-06 01:00:00 -1.1 0 Calma 5 Norte 0 -- -- 88
2020-02-06 00:00:00 -0.5 2 Nordeste 6 Nordeste 0 -- -- 84
2020-02-05 23:00:00 0.3 2 Norte 6 Norte 0 -- -- 80
2020-02-05 22:00:00 1.8 0 Calma 5 Noroeste 0 -- -- 74
2020-02-05 21:00:00 3.7 2 Norte 14 Norte 0 -- -- 68
2020-02-05 20:00:00 8.8 7 Norte 16 Norte 0 -- -- 40
2020-02-05 19:00:00 10.1 5 Norte 13 Nordeste 0 -- -- 40
2020-02-05 18:00:00 11 3 Sur 22 Sur 0 -- -- 47
2020-02-05 17:00:00 15.8 16 Sudoeste 30 Sur 0 -- -- 40
2020-02-05 16:00:00 16.7 17 Sudoeste 25 Sudoeste 0 -- -- 37
2020-02-05 15:00:00 17.2 4 Noroeste 12 Norte 0 -- -- 31
2020-02-05 14:00:00 14.2 4 Sur 12 Sur 0 -- -- 37
2020-02-05 13:00:00 10 3 Sur 5 Sur 0 -- -- 53
2020-02-05 12:00:00 5.2 3 Sudeste 4 Este 0 -- -- 64
2020-02-05 11:00:00 0.2 3 Este 5 Sudeste 0 -- -- 98
2020-02-05 10:00:00 -2.4 3 Norte 4 Norte 0 -- -- 99
2020-02-05 09:00:00 -2.7 3 Norte 7 Nordeste 0 -- -- 99
2020-02-05 08:00:00 -2.7 4 Norte 6 Nordeste 0 -- -- 99
2020-02-05 07:00:00 -2.2 2 Norte 6 Norte 0 -- -- 99
2020-02-05 06:00:00 -1.9 4 Nordeste 6 Norte 0 -- -- 99
2020-02-05 05:00:00 -1.8 0 Calma 6 Norte 0 -- -- 98
2020-02-05 04:00:00 -1.1 4 Nordeste 9 Norte 0 -- -- 99
2020-02-05 03:00:00 -1.1 0 Calma 8 Nordeste 0 -- -- 98
2020-02-05 02:00:00 -0.3 3 Nordeste 9 Nordeste 0 -- -- 97
2020-02-05 01:00:00 0.3 4 Norte 6 Norte 0 -- -- 97
2020-02-05 00:00:00 1.5 3 Norte 8 Norte 0 -- -- 93
2020-02-04 23:00:00 2.7 4 Nordeste 11 Norte 0 -- -- 94
2020-02-04 22:00:00 3.9 7 Norte 10 Norte 0 -- -- 87
2020-02-04 21:00:00 4.9 2 Norte 8 Norte 0 -- -- 92
2020-02-04 20:00:00 6.5 4 Norte 15 Noroeste 0 -- -- 87
2020-02-04 19:00:00 9.8 9 Norte 19 Noroeste 0 -- -- 74
2020-02-04 18:00:00 11.2 12 Noroeste 36 Noroeste 0 -- -- 70
2020-02-04 12:00:00 -- -- -- -- -- -- -- -- --
2020-02-04 11:00:00 2.8 2 Sudeste 5 Este 0 -- -- 99
2020-02-04 10:00:00 0.2 0 Calma 5 Noroeste 0 -- -- 100
2020-02-04 09:00:00 -0.6 4 Norte 6 Norte 0 -- -- 100
2020-02-04 08:00:00 -0.2 2 Nordeste 7 Norte 0 -- -- 100
2020-02-04 07:00:00 0.4 2 Nordeste 6 Norte 0 -- -- 100
2020-02-04 06:00:00 0.9 5 Nordeste 10 Norte 0 -- -- 100
2020-02-04 05:00:00 1.3 0 Calma 7 Este 0 -- -- 99
2020-02-04 04:00:00 2.4 0 Calma 8 Norte 0 -- -- 99
2020-02-04 03:00:00 3.2 2 Nordeste 5 Nordeste 0 -- -- 98
2020-02-04 02:00:00 4.1 3 Noroeste 7 Norte 0 -- -- 98
2020-02-04 01:00:00 4.8 4 Norte 7 Norte 0 -- -- 96
2020-02-04 00:00:00 5.6 3 Noroeste 6 Noroeste 0 -- -- 95
2020-02-03 23:00:00 7.1 3 Norte 9 Oeste 0 -- -- 89
2020-02-03 22:00:00 7.8 4 Este 9 Nordeste 0 -- -- 85
2020-02-03 21:00:00 9.8 8 Norte 12 Norte 0 -- -- 77
2020-02-03 20:00:00 10.5 4 Norte 20 Sur 0 -- -- 74
2020-02-03 19:00:00 13.6 8 Sudoeste 39 Sur 0 -- -- 62
2020-02-03 18:00:00 15 14 Sudoeste 39 Sur 0 -- -- 56
2020-02-03 17:00:00 18.2 16 Sudoeste 49 Sur 0 -- -- 45
2020-02-03 16:00:00 18 29 Sur 54 Sur 0 -- -- 44
2020-02-03 15:00:00 18.2 25 Sudoeste 42 Sudoeste 0 -- -- 41
2020-02-03 14:00:00 17.5 23 Sur 40 Sur 0 -- -- 38
2020-02-03 13:00:00 11.9 3 Sur 8 Sur 0 -- -- 67
2020-02-03 12:00:00 7.2 3 Sudeste 7 Sur 0 -- -- 95
2020-02-03 11:00:00 3.6 0 Calma 6 Este 0 -- -- 100
2020-02-03 10:00:00 0.7 -- -- -- -- 0 -- -- 100
2020-02-03 09:00:00 0.4 0 Calma 6 Noroeste 0 -- -- 100
2020-02-03 08:00:00 0.5 0 Calma 6 Norte 0 -- -- 100
2020-02-03 07:00:00 0.6 2 Norte 5 Norte 0 -- -- 100
2020-02-03 06:00:00 1.3 0 Calma 4 Norte 0 -- -- 100
2020-02-03 05:00:00 1.5 0 Calma 5 Nordeste 0 -- -- 100
2020-02-03 04:00:00 2.1 0 Calma 5 Norte 0 -- -- 100
2020-02-03 03:00:00 2.5 2 Norte 4 Norte 0 -- -- 99
2020-02-03 02:00:00 3.4 3 Norte 5 Norte 0 -- -- 99
2020-02-03 01:00:00 4 2 Nordeste 4 Norte 0 -- -- 98
2020-02-03 00:00:00 5.1 0 Calma 5 Norte 0 -- -- 97
2020-02-02 23:00:00 6.1 0 Calma 8 Norte 0 -- -- 93
2020-02-02 22:00:00 8.8 4 Norte 9 Norte 0 -- -- 83
2020-02-02 21:00:00 10.7 5 Norte 13 Sudoeste 0 -- -- 76
2020-02-02 20:00:00 12.4 7 Sudoeste 36 Sudoeste 0 -- -- 70
2020-02-02 19:00:00 13.2 14 Sudoeste 27 Sur 0 -- -- 67
2020-02-02 18:00:00 13.9 10 Sur 36 Sur 0 -- -- 63
2020-02-02 17:00:00 14.6 8 Sudeste 31 Sur 0 -- -- 59
2020-02-02 16:00:00 15.1 18 Sur 53 Sur 0 -- -- 59
2020-02-02 15:00:00 15 23 Sur 52 Sur 0 -- -- 58
2020-02-02 14:00:00 14.3 25 Sur 51 Sur 0 -- -- 66
2020-02-02 13:00:00 13.9 27 Sur 49 Sur 0 -- -- 71
2020-02-02 12:00:00 13.8 23 Sudoeste 38 Sudoeste 0 -- -- 73
2020-02-02 11:00:00 12.7 21 Sur 36 Sur 0 -- -- 77
2020-02-02 10:00:00 11.2 3 Noroeste 9 Sur 0 -- -- 84
2020-02-02 09:00:00 11.9 11 Sur 26 Sudoeste 0 -- -- 80
2020-02-02 08:00:00 12.1 15 Sudoeste 32 Sudoeste 0 -- -- 79
2020-02-02 07:00:00 12.3 15 Sudoeste 28 Sur 0 -- -- 78
2020-02-02 06:00:00 12.2 8 Sur 24 Sudoeste 0 -- -- 80
2020-02-02 05:00:00 12.2 17 Sudoeste 38 Sur 0 -- -- 81
2020-02-02 04:00:00 12 14 Sur 36 Sur 0 -- -- 81
2020-02-02 03:00:00 11.7 11 Sur 32 Sudoeste 0 -- -- 83
2020-02-02 02:00:00 12.1 15 Sudoeste 39 Sur 0 -- -- 78
2020-02-02 01:00:00 12.4 14 Sudoeste 29 Sur 0 -- -- 79
2020-02-02 00:00:00 11.8 7 Sur 33 Sur 0 -- -- 84
2020-02-01 23:00:00 12 18 Sudoeste 43 Sudoeste 0 -- -- 83
2020-02-01 22:00:00 12.3 19 Sudoeste 44 Sur 0 -- -- 80
2020-02-01 21:00:00 12.4 22 Sudoeste 47 Sur 0 -- -- 81
2020-02-01 20:00:00 12.3 13 Sur 33 Sur 0 -- -- 84
2020-02-01 19:00:00 12.2 22 Sur 53 Sur 0.6 -- -- 85
2020-02-01 18:00:00 12.2 12 Oeste 33 Sur 0.4 -- -- 87
2020-02-01 17:00:00 13.1 18 Sudoeste 40 Sur 0 -- -- 82
2020-02-01 16:00:00 12.4 14 Sur 36 Sur 0.2 -- -- 86
2020-02-01 15:00:00 13.3 21 Sur 44 Sur 0.2 -- -- 82
2020-02-01 14:00:00 13 14 Sudoeste 36 Sur 0.2 -- -- 83
2020-02-01 13:00:00 11.9 13 Sudoeste 33 Sur 0.2 -- -- 89
2020-02-01 12:00:00 12.6 17 Sudoeste 52 Sur 0 -- -- 83
2020-02-01 11:00:00 11.9 9 Sudoeste 32 Sur 0 -- -- 85
2020-02-01 10:00:00 11.3 23 Sur 34 Sur 0 -- -- 85
2020-02-01 09:00:00 11.1 13 Sudoeste 27 Sudoeste 0 -- -- 84
2020-02-01 08:00:00 11 8 Sudoeste 26 Sudoeste 0 -- -- 85
2020-02-01 07:00:00 11.1 7 Oeste 18 Oeste 0 -- -- 84
2020-02-01 06:00:00 11.3 11 Sudoeste 31 Sudoeste 0 -- -- 85
2020-02-01 05:00:00 11.1 13 Sur 32 Sur 0 -- -- 90
2020-02-01 04:00:00 11.5 9 Sur 36 Sudoeste 0 -- -- 87
2020-02-01 03:00:00 11.3 11 Sudoeste 35 Sur 0 -- -- 90
2020-02-01 02:00:00 11 18 Sur 30 Sudoeste 0.8 -- -- 94
2020-02-01 01:00:00 10.3 4 Noroeste 16 Sur 2.2 -- -- 97
2020-02-01 00:00:00 10.9 6 Sudoeste 41 Sur 2.8 -- -- 92
2020-01-31 23:00:00 11.2 8 Sudoeste 21 Sur 1.6 -- -- 89
2020-01-31 22:00:00 9.8 7 Este 24 Sur 2 -- -- 94
2020-01-31 21:00:00 11 11 Sudoeste 46 Sudoeste 0 -- -- 85
2020-01-31 20:00:00 12 20 Sur 38 Sur 0 -- -- 77
2020-01-31 19:00:00 12.1 16 Sur 35 Sudoeste 0 -- -- 76
2020-01-31 18:00:00 12.7 19 Sudoeste 41 Sudoeste 0 -- -- 74
2020-01-31 17:00:00 12.5 12 Sudoeste 40 Sudoeste 0 -- -- 77
2020-01-31 16:00:00 12.4 23 Sur 42 Sur 0 -- -- 77
2020-01-31 15:00:00 12.1 5 Nordeste 24 Sudoeste 0 -- -- 77
2020-01-31 14:00:00 12.6 10 Sur 29 Sur 0 -- -- 75
2020-01-31 13:00:00 12.5 13 Sudoeste 35 Sur 0 -- -- 71
2020-01-31 12:00:00 12.1 3 Oeste 8 Norte 0 -- -- 79
2020-01-31 11:00:00 6.9 3 Norte 8 Norte 0 -- -- 93
2020-01-31 10:00:00 6.4 2 Norte 9 Norte 0 -- -- 95
2020-01-31 09:00:00 5.2 0 Calma 10 Nordeste 0 -- -- 95
2020-01-31 08:00:00 5.4 5 Norte 10 Nordeste 0 -- -- 96
2020-01-31 07:00:00 5.3 2 Este 13 Nordeste 0 -- -- 95
2020-01-31 06:00:00 6.5 9 Norte 13 Nordeste 0 -- -- 95
2020-01-31 05:00:00 7.1 3 Norte 17 Norte 0 -- -- 96
2020-01-31 04:00:00 7.5 3 Nordeste 15 Norte 0 -- -- 95
2020-01-31 03:00:00 7.5 6 Norte 11 Norte 0 -- -- 95
2020-01-31 02:00:00 8.1 5 Norte 13 Norte 0 -- -- 94
2020-01-31 01:00:00 7.9 8 Norte 19 Oeste 0 -- -- 94
2020-01-31 00:00:00 9.2 7 Noroeste 23 Sur 0 -- -- 94
2020-01-30 23:00:00 7.9 6 Norte 9 Norte 0 -- -- 98
2020-01-30 22:00:00 7.9 3 Sudoeste 17 Oeste 0 -- -- 96
2020-01-30 21:00:00 8.6 6 Sudoeste 18 Sur 0 -- -- 95
2020-01-30 20:00:00 8.4 4 Noroeste 13 Sudoeste 0 -- -- 96
2020-01-30 19:00:00 8.1 10 Sur 21 Sudoeste 0.2 -- -- 94
2020-01-30 18:00:00 8.3 8 Sudoeste 19 Sur 0.2 -- -- 95
2020-01-30 17:00:00 8.5 4 Sudeste 9 Sudeste 0.2 -- -- 94
2020-01-30 16:00:00 9.1 6 Sudeste 14 Sur 0 -- -- 91
2020-01-30 15:00:00 9.4 10 Oeste 39 Sur 0 -- -- 85
2020-01-30 14:00:00 8.4 19 Sur 45 Sudoeste 0 -- -- 89
2020-01-30 13:00:00 8.4 24 Sudoeste 45 Sur 0 -- -- 87
2020-01-30 12:00:00 8.2 13 Sur 21 Sudoeste 0 -- -- 87
2020-01-30 11:00:00 7.9 13 Sur 38 Sur 0 -- -- 85
2020-01-30 10:00:00 7.9 17 Sudoeste 42 Sur 0 -- -- 81
2020-01-30 09:00:00 8.1 8 Sudoeste 48 Sur 0 -- -- 77
2020-01-30 08:00:00 8.2 25 Sur 47 Sudoeste 0 -- -- 77
2020-01-30 07:00:00 8.5 25 Sudoeste 53 Sur 0 -- -- 78
2020-01-30 06:00:00 8.6 25 Sur 56 Sur 0 -- -- 81
2020-01-30 05:00:00 8.9 27 Sudoeste 45 Sur 0 -- -- 78
2020-01-30 04:00:00 8.9 27 Sudoeste 48 Sudoeste 0 -- -- 78
2020-01-30 03:00:00 9 27 Sudoeste 49 Sudoeste 0 -- -- 80
2020-01-30 02:00:00 9.3 24 Sudoeste 52 Sur 0 -- -- 79
2020-01-30 01:00:00 9.7 26 Sur 48 Sur 0 -- -- 82
2020-01-30 00:00:00 9.3 19 Sur 36 Sur 0 -- -- 88
2020-01-29 23:00:00 9.4 16 Sur 45 Sur 0.2 -- -- 91
2020-01-29 22:00:00 9.5 20 Sudoeste 46 Sur 0.2 -- -- 91
2020-01-29 21:00:00 9.7 19 Sudoeste 47 Sur 0 -- -- 89
2020-01-29 20:00:00 9.2 11 Sudoeste 37 Sur 0.4 -- -- 93
2020-01-29 19:00:00 9.4 17 Sudoeste 44 Sudoeste 0.4 -- -- 91
2020-01-29 18:00:00 9.3 19 Sudoeste 50 Sur 0.8 -- -- 91
2020-01-29 17:00:00 9.4 21 Sudoeste 39 Sudoeste 0.8 -- -- 91
2020-01-29 16:00:00 9.1 16 Sudoeste 44 Sur 2.6 -- -- 92
2020-01-29 15:00:00 9.1 21 Sudoeste 49 Sur 2 -- -- 90
2020-01-29 14:00:00 8.9 22 Sudoeste 43 Sudoeste 2.6 -- -- 89
2020-01-29 13:00:00 9 23 Sudoeste 41 Sur 0.6 -- -- 88
2020-01-29 12:00:00 8.9 25 Sudoeste 50 Sudoeste 0.6 -- -- 88
2020-01-29 11:00:00 8.5 19 Sudoeste 33 Sudoeste 1.2 -- -- 90
2020-01-29 10:00:00 7.5 5 Norte 22 Sudoeste 1.4 -- -- 94
2020-01-29 09:00:00 8 12 Sudoeste 30 Sudoeste 0.8 -- -- 90
2020-01-29 08:00:00 8.3 16 Sudoeste 30 Sudoeste 0.2 -- -- 89
2020-01-29 07:00:00 8.3 5 Noroeste 25 Sudoeste 0.2 -- -- 88
2020-01-29 06:00:00 7.8 5 Sudoeste 13 Sur 0 -- -- 94
2020-01-29 05:00:00 8.5 8 Sudoeste 30 Sur 0 -- -- 88
2020-01-29 04:00:00 8 7 Sudoeste 32 Sur 0.2 -- -- 93
2020-01-29 03:00:00 8.3 10 Sudoeste 38 Sur 0.4 -- -- 92
2020-01-29 02:00:00 8.1 12 Sudoeste 29 Sur 1.8 -- -- 95
2020-01-29 01:00:00 8.3 13 Sudoeste 31 Sur 0 -- -- 96
2020-01-29 00:00:00 7.4 10 Sudoeste 22 Sur 0.2 -- -- 100
2020-01-28 23:00:00 6 0 Calma 4 Norte 0.6 -- -- 99
2020-01-28 22:00:00 6.1 0 Calma 4 Oeste 0.6 -- -- 99
2020-01-28 21:00:00 6.2 3 Norte 5 Norte 0.4 -- -- 99
2020-01-28 20:00:00 6.2 0 Calma 3 Norte 0.2 -- -- 98
2020-01-28 19:00:00 6.4 4 Norte 5 Norte 0 -- -- 96
2020-01-28 18:00:00 6.9 0 Calma 8 Nordeste 0 -- -- 93
2020-01-28 17:00:00 7.4 3 Nordeste 26 Sur 0.2 -- -- 91
2020-01-28 16:00:00 8.7 19 Sudoeste 32 Sudoeste 0 -- -- 75
2020-01-28 15:00:00 9.7 21 Sur 34 Sudoeste 0 -- -- 65
2020-01-28 14:00:00 8.3 23 Sur 35 Sur 0 -- -- 64
2020-01-28 13:00:00 7.9 22 Sur 38 Sudoeste 0 -- -- 66
2020-01-28 12:00:00 7 17 Sur 39 Sur 0 -- -- 72
2020-01-28 11:00:00 3.7 2 Nordeste 10 Sudoeste 0 -- -- 88
2020-01-28 10:00:00 1.5 2 Norte 8 Sudoeste 0 -- -- 92
2020-01-28 09:00:00 1.8 3 Sur 21 Oeste 0 -- -- 92
2020-01-28 08:00:00 3.8 8 Oeste 18 Sudoeste 0 -- -- 81
2020-01-28 07:00:00 4.4 11 Oeste 25 Oeste 0 -- -- 78
2020-01-28 06:00:00 4.4 10 Oeste 21 Oeste 0 -- -- 83
2020-01-28 05:00:00 5.1 6 Sudoeste 24 Sur 0 -- -- 82
2020-01-28 04:00:00 5.8 8 Sudoeste 27 Sudoeste 0 -- -- 80
2020-01-28 03:00:00 6.7 15 Oeste 25 Sudoeste 0 -- -- 77
2020-01-28 02:00:00 6.7 13 Oeste 23 Oeste 0 -- -- 82
2020-01-28 01:00:00 6.6 11 Sudoeste 28 Sudoeste 0 -- -- 90
2020-01-28 00:00:00 7.5 23 Sur 40 Sur 0.6 -- -- 90
2020-01-27 23:00:00 6.2 4 Noroeste 35 Sur 1.8 -- -- 95
2020-01-27 22:00:00 6.6 13 Sur 45 Sur 1 -- -- 93
2020-01-27 21:00:00 6.3 13 Sudoeste 55 Sudoeste 1.2 -- -- 92
2020-01-27 20:00:00 6.4 17 Sudoeste 47 Sur 1 -- -- 92
2020-01-27 19:00:00 6.3 7 Nordeste 40 Sur 0.6 -- -- 92
2020-01-27 18:00:00 6.4 27 Sur 62 Sur 0.6 -- -- 87
2020-01-27 17:00:00 6.5 31 Sur 60 Sur 0.8 -- -- 87
2020-01-27 16:00:00 6.7 23 Sur 57 Sur 0 -- -- 84
2020-01-27 15:00:00 7.6 24 Sur 50 Sur 0 -- -- 74
2020-01-27 14:00:00 7.5 13 Sudoeste 45 Sur 0 -- -- 74
2020-01-27 13:00:00 5.5 8 Sudoeste 46 Sudoeste 2 -- -- 82
2020-01-27 12:00:00 6 22 Sur 42 Sur 3.6 -- -- 87
2020-01-27 11:00:00 6.9 21 Sudoeste 49 Sur 2.8 -- -- 88
2020-01-27 10:00:00 6.4 6 Sur 41 Sur 2.2 -- -- 91
2020-01-27 09:00:00 6.7 26 Sudoeste 61 Sur 1.2 -- -- 88
2020-01-27 08:00:00 6.3 23 Sudoeste 48 Sudoeste 0.8 -- -- 91
2020-01-27 07:00:00 6.2 21 Sudoeste 42 Sur 0.6 -- -- 90
2020-01-27 06:00:00 4.9 7 Nordeste 22 Sur 0.2 -- -- 96
2020-01-27 05:00:00 5.3 15 Sudoeste 36 Sur 0.8 -- -- 89
2020-01-27 04:00:00 5.3 21 Sudoeste 46 Sur 0.4 -- -- 89
2020-01-27 03:00:00 5.5 24 Sur 54 Sur 0.2 -- -- 86
2020-01-27 02:00:00 6.3 13 Sur 31 Sur 0 -- -- 80
2020-01-27 01:00:00 5.8 15 Sudoeste 37 Sur 0 -- -- 84
2020-01-27 00:00:00 6.1 22 Sudoeste 45 Sur 0 -- -- 81
2020-01-26 23:00:00 6.3 18 Sudoeste 38 Sur 0 -- -- 77
2020-01-26 22:00:00 6.4 21 Sudoeste 41 Sudoeste 0 -- -- 76
2020-01-26 21:00:00 6.3 20 Sudoeste 37 Sur 0 -- -- 73
2020-01-26 20:00:00 6 9 Sudoeste 39 Sur 0 -- -- 74
2020-01-26 19:00:00 6 26 Sur 43 Sur 0 -- -- 74
2020-01-26 18:00:00 6.1 13 Sur 27 Sur 0 -- -- 73
2020-01-26 17:00:00 6.6 11 Sudoeste 35 Sudoeste 0 -- -- 69
2020-01-26 16:00:00 6.2 15 Sudoeste 32 Sur 0 -- -- 72
2020-01-26 15:00:00 6.1 14 Sur 36 Sur 0 -- -- 73
2020-01-26 14:00:00 5 16 Sur 25 Sur 0 -- -- 81
2020-01-26 13:00:00 3 3 Este 5 Norte 0 -- -- 86
2020-01-26 12:00:00 0.8 0 Calma 4 Nordeste 0 -- -- 87
2020-01-26 11:00:00 -1 0 Calma 5 Nordeste 0 -- -- 95
2020-01-26 10:00:00 -2.5 3 Norte 5 Norte 0 -- -- 98
2020-01-26 09:00:00 -2.9 3 Norte 5 Norte 0 -- -- 98
2020-01-26 08:00:00 -3.1 3 Noroeste 6 Este 0 -- -- 98
2020-01-26 07:00:00 -3.1 0 Calma 5 Este 0 -- -- 98
2020-01-26 06:00:00 -2.9 2 Norte 6 Norte 0 -- -- 99
2020-01-26 05:00:00 -2.7 6 Norte 9 Norte 0 -- -- 98
2020-01-26 04:00:00 -2.5 2 Oeste 8 Norte 0 -- -- 98
2020-01-26 03:00:00 -2 5 Norte 6 Norte 0 -- -- 97
2020-01-26 02:00:00 -1.7 0 Calma 5 Este 0 -- -- 96
2020-01-26 01:00:00 -0.4 4 Nordeste 8 Norte 0 -- -- 91
2020-01-26 00:00:00 -0.4 0 Calma 7 Norte 0 -- -- 92
2020-01-25 23:00:00 1 3 Norte 5 Norte 0 -- -- 88
2020-01-25 22:00:00 2.2 0 Calma 4 Sur 0 -- -- 87
2020-01-25 21:00:00 4.1 6 Sur 10 Sudoeste 0 -- -- 77
2020-01-25 20:00:00 5.4 6 Noroeste 17 Noroeste 0 -- -- 72
2020-01-25 19:00:00 6.4 11 Noroeste 17 Noroeste 0 -- -- 66
2020-01-25 18:00:00 7.4 10 Sur 23 Sur 0 -- -- 54
2020-01-25 17:00:00 9.7 13 Sur 25 Sudoeste 0 -- -- 51
2020-01-25 16:00:00 9.7 17 Sudoeste 28 Sur 0 -- -- 51
2020-01-25 15:00:00 8.5 15 Sudoeste 21 Sudoeste 0 -- -- 53
2020-01-25 14:00:00 10.4 4 Sur 8 Sur 0 -- -- 52
2020-01-25 13:00:00 7.7 5 Sur 8 Sur 0 -- -- 70
2020-01-25 12:00:00 6 3 Sudeste 5 Sur 0 -- -- 84
2020-01-25 11:00:00 3 0 Calma 4 Norte 0 -- -- 99
2020-01-25 10:00:00 1 3 Norte 4 Nordeste 0 -- -- 99
2020-01-25 09:00:00 0.8 2 Este 4 Este 0 -- -- 99
2020-01-25 08:00:00 1.3 3 Nordeste 5 Nordeste 0 -- -- 99
2020-01-25 07:00:00 1.7 2 Norte 4 Este 0 -- -- 99
2020-01-25 06:00:00 2 0 Calma 6 Norte 0 -- -- 99
2020-01-25 05:00:00 2.2 0 Calma 6 Norte 0 -- -- 99
2020-01-25 04:00:00 2 3 Sur 5 Oeste 0 -- -- 99
2020-01-25 03:00:00 2 0 Calma 6 Oeste 0 -- -- 99
2020-01-25 02:00:00 1.6 0 Calma 3 Nordeste 0 -- -- 99
2020-01-25 01:00:00 1.6 0 Calma 4 Oeste 0.2 -- -- 99
2020-01-25 00:00:00 1.8 0 Calma 3 Sudeste 0 -- -- 99
2020-01-24 23:00:00 2.8 0 Calma 4 Este 0 -- -- 98
2020-01-24 22:00:00 3.2 2 Nordeste 4 Noroeste 0 -- -- 98
2020-01-24 21:00:00 3 0 Calma 5 Norte 0 -- -- 97
2020-01-24 20:00:00 3.2 0 Calma 5 Sudoeste 0 -- -- 96
2020-01-24 19:00:00 4.5 3 Oeste 9 Sudeste 0.4 -- -- 94
2020-01-24 18:00:00 6.2 10 Sudoeste 19 Sudoeste 0 -- -- 80
2020-01-24 17:00:00 7.6 8 Sur 13 Sudoeste 0 -- -- 70
2020-01-24 16:00:00 8.8 7 Sur 14 Sur 0 -- -- 66
2020-01-24 15:00:00 8.9 8 Sur 11 Sur 0 -- -- 67
2020-01-24 14:00:00 9.1 5 Sur 8 Sur 0 -- -- 69
2020-01-24 13:00:00 7 4 Sur 8 Sur 0 -- -- 81
2020-01-24 12:00:00 6 2 Sudoeste 4 Sur 0 -- -- 78
2020-01-24 11:00:00 3.7 0 Calma 4 Noroeste 0 -- -- 85
2020-01-24 10:00:00 1 2 Sudoeste 4 Este 0 -- -- 96
2020-01-24 09:00:00 -0.3 0 Calma 4 Noroeste 0 -- -- 97
2020-01-24 08:00:00 -0.7 3 Sudeste 7 Noroeste 0 -- -- 98
2020-01-24 07:00:00 -1.5 2 Este 5 Este 0 -- -- 98
2020-01-24 06:00:00 -1.5 3 Norte 5 Norte 0 -- -- 98
2020-01-24 05:00:00 -1.4 0 Calma 5 Sudeste 0 -- -- 97
2020-01-24 04:00:00 -1 4 Norte 8 Norte 0 -- -- 96
2020-01-24 03:00:00 -0.8 0 Calma 5 Sudeste 0 -- -- 96
2020-01-24 02:00:00 -0.5 0 Calma 7 Este 0 -- -- 95
2020-01-24 01:00:00 -0.1 2 Noroeste 8 Norte 0 -- -- 93
2020-01-24 00:00:00 0.6 3 Este 8 Norte 0 -- -- 92
2020-01-23 23:00:00 0 3 Nordeste 6 Este 0 -- -- 93
2020-01-23 22:00:00 0.4 3 Norte 9 Norte 0 -- -- 91
2020-01-23 21:00:00 1.4 6 Norte 9 Norte 0 -- -- 86
2020-01-23 20:00:00 2 3 Nordeste 8 Norte 0 -- -- 82
2020-01-23 19:00:00 3.9 3 Norte 5 Sudoeste 0 -- -- 73
2020-01-23 18:00:00 7.5 3 Norte 18 Sur 0 -- -- 62
2020-01-23 17:00:00 10.8 3 Sur 8 Sudoeste 0 -- -- 52
2020-01-23 16:00:00 10.9 6 Sur 13 Este 0 -- -- 53
2020-01-23 15:00:00 10.8 5 Sudeste 14 Este 0 -- -- 53
2020-01-23 14:00:00 8.2 6 Este 22 Este 0 -- -- 61
2020-01-23 13:00:00 7.1 9 Nordeste 20 Nordeste 0 -- -- 63
2020-01-23 12:00:00 6 2 Sudeste 9 Sudoeste 0 -- -- 70
2020-01-23 11:00:00 2 4 Sur 9 Norte 0 -- -- 89
2020-01-23 10:00:00 0.6 10 Norte 17 Norte 0 -- -- 90
2020-01-23 09:00:00 -0.6 4 Norte 10 Norte 0 -- -- 97
2020-01-23 08:00:00 -0.8 2 Nordeste 9 Sudeste 0 -- -- 96
2020-01-23 07:00:00 -0.2 2 Este 4 Este 0 -- -- 94
2020-01-23 06:00:00 0.4 2 Sur 6 Norte 0 -- -- 93
2020-01-23 05:00:00 0 3 Nordeste 8 Norte 0 -- -- 93
2020-01-23 04:00:00 1.8 5 Noroeste 9 Noroeste 0 -- -- 90
2020-01-23 03:00:00 0.7 3 Sur 10 Sur 0 -- -- 96
2020-01-23 02:00:00 1 4 Sur 10 Norte 0 -- -- 94
2020-01-23 01:00:00 0.8 4 Norte 9 Nordeste 0 -- -- 94
2020-01-23 00:00:00 0.6 2 Oeste 9 Norte 0 -- -- 93
2020-01-22 23:00:00 2.1 4 Norte 8 Norte 0 -- -- 92
2020-01-22 22:00:00 3.8 6 Norte 9 Nordeste 0 -- -- 86
2020-01-22 21:00:00 3.8 2 Norte 12 Noroeste 0 -- -- 87
2020-01-22 20:00:00 4.7 5 Norte 12 Norte 0 -- -- 81
2020-01-22 19:00:00 5.4 4 Norte 14 Este 0 -- -- 74
2020-01-22 18:00:00 6.1 5 Nordeste 16 Este 0 -- -- 71
2020-01-22 17:00:00 6.9 5 Nordeste 13 Nordeste 0 -- -- 68
2020-01-22 16:00:00 8.2 5 Nordeste 16 Este 0 -- -- 64
2020-01-22 15:00:00 8.3 8 Nordeste 19 Este 0 -- -- 64
2020-01-22 14:00:00 8.6 8 Este 21 Este 0 -- -- 63
2020-01-22 13:00:00 8.7 8 Este 16 Nordeste 0 -- -- 63
2020-01-22 12:00:00 8 4 Nordeste 19 Este 0 -- -- 66
2020-01-22 11:00:00 5.4 4 Noroeste 10 Nordeste 0 -- -- 77
2020-01-22 10:00:00 4.9 4 Norte 14 Norte 0 -- -- 76
2020-01-22 09:00:00 4.9 7 Norte 16 Nordeste 0 -- -- 74
2020-01-22 08:00:00 5.3 4 Norte 19 Este -- -- -- 73
2020-01-22 07:00:00 5.3 10 Norte 22 Norte 0 -- -- 75
2020-01-22 06:00:00 5.9 12 Nordeste 22 Nordeste 0 -- -- 71
2020-01-22 05:00:00 5.8 4 Norte 19 Este 0 -- -- 70
2020-01-22 04:00:00 5.9 10 Norte 23 Norte 0 -- -- 67
2020-01-22 03:00:00 1.2 5 Nordeste 12 Este 0 -- -- 83
2020-01-22 02:00:00 0.1 4 Nordeste 15 Noroeste 0 -- -- 86
2020-01-22 01:00:00 0.2 8 Norte 17 Noroeste 0 -- -- 86
2020-01-22 00:00:00 0.8 9 Norte 21 Norte 0 -- -- 83